createdAt,value
2023-05-21T00:03:16.369Z,2.50
2023-05-21T00:08:19.339Z,2.33
2023-05-21T00:13:23.800Z,2.25
2023-05-21T00:18:26.593Z,2.40
2023-05-21T00:23:32.573Z,2.13
2023-05-21T00:28:36.765Z,2.20
2023-05-21T00:33:39.604Z,2.33
2023-05-21T00:38:44.093Z,2.30
2023-05-21T00:43:50.240Z,2.42
2023-05-21T00:48:53.540Z,2.05
2023-05-21T00:53:56.645Z,2.33
2023-05-21T00:59:05.488Z,2.53
2023-05-21T01:04:08.303Z,2.20
2023-05-21T01:09:12.184Z,2.50
2023-05-21T01:14:18.911Z,2.47
2023-05-21T01:19:23.602Z,2.33
2023-05-21T01:24:28.069Z,2.50
2023-05-21T01:29:30.927Z,2.30
2023-05-21T01:34:39.941Z,2.42
2023-05-21T01:39:53.330Z,2.30
2023-05-21T01:44:58.156Z,2.45
2023-05-21T01:50:01.500Z,2.38
2023-05-21T01:55:06.324Z,2.65
2023-05-21T02:00:10.847Z,2.75
2023-05-21T02:05:18.583Z,2.45
2023-05-21T02:10:22.784Z,2.50
2023-05-21T02:15:25.860Z,2.72
2023-05-21T02:20:28.911Z,2.50
2023-05-21T02:25:33.507Z,2.45
2023-05-21T02:30:36.677Z,2.58
2023-05-21T02:35:39.445Z,2.65
2023-05-21T02:40:44.046Z,2.35
2023-05-21T02:45:47.528Z,2.45
2023-05-21T02:50:50.779Z,2.20
2023-05-21T02:55:54.970Z,2.70
2023-05-21T03:00:57.882Z,2.80
2023-05-21T03:06:00.744Z,2.42
2023-05-21T03:11:05.880Z,2.47
2023-05-21T03:16:08.869Z,2.72
2023-05-21T03:21:13.203Z,2.78
2023-05-21T03:26:17.908Z,2.70
2023-05-21T03:31:21.383Z,3.08
2023-05-21T03:36:34.769Z,2.85
2023-05-21T03:41:40.604Z,2.65
2023-05-21T03:46:46.894Z,2.97
2023-05-21T03:52:02.036Z,3.00
2023-05-21T03:57:06.861Z,2.90
2023-05-21T04:02:10.114Z,3.03
2023-05-21T04:07:15.238Z,3.35
2023-05-21T04:12:20.137Z,3.40
2023-05-21T04:17:26.861Z,3.35
2023-05-21T04:22:30.157Z,3.22
2023-05-21T04:27:34.592Z,3.83
2023-05-21T04:32:38.388Z,3.60
2023-05-21T04:37:45.888Z,3.33
2023-05-21T04:42:51.764Z,3.42
2023-05-21T04:48:00.798Z,3.40
2023-05-21T04:53:05.020Z,3.63
2023-05-21T04:58:10.945Z,3.55
2023-05-21T05:03:14.715Z,3.50
2023-05-21T05:08:19.500Z,3.55
2023-05-21T05:13:24.851Z,3.67
2023-05-21T05:18:27.989Z,3.78
2023-05-21T05:23:31.066Z,4.13
2023-05-21T05:28:35.552Z,4.13
2023-05-21T05:33:38.518Z,3.75
2023-05-21T05:38:41.447Z,3.63
2023-05-21T05:43:45.714Z,4.20
2023-05-21T05:48:49.104Z,3.63
2023-05-21T05:53:52.200Z,4.38
2023-05-21T05:58:56.842Z,4.65
2023-05-21T06:04:00.682Z,4.40
2023-05-21T06:09:03.838Z,4.78
2023-05-21T06:14:08.073Z,4.63
2023-05-21T06:19:11.025Z,5.10
2023-05-21T06:24:13.890Z,4.30
2023-05-21T06:29:18.158Z,4.57
2023-05-21T06:34:22.897Z,5.15
2023-05-21T06:39:27.174Z,5.22
2023-05-21T06:44:32.596Z,4.90
2023-05-21T06:49:52.065Z,5.28
2023-05-21T06:54:54.873Z,5.70
2023-05-21T07:00:00.788Z,5.50
2023-05-21T07:05:03.922Z,5.60
2023-05-21T07:10:08.345Z,5.75
2023-05-21T07:15:13.074Z,6.75
2023-05-21T07:20:16.121Z,6.47
2023-05-21T07:25:23.728Z,6.50
2023-05-21T07:30:28.064Z,6.80
2023-05-21T07:35:33.906Z,7.45
2023-05-21T07:40:37.049Z,7.00
2023-05-21T07:45:41.981Z,6.57
2023-05-21T07:50:47.977Z,6.43
2023-05-21T07:55:51.275Z,7.20
2023-05-21T08:01:00.723Z,7.25
2023-05-21T08:06:04.962Z,8.38
2023-05-21T08:11:09.216Z,8.85
2023-05-21T08:16:15.592Z,9.20
2023-05-21T08:21:19.035Z,9.48
2023-05-21T08:26:22.142Z,9.32
2023-05-21T08:31:26.469Z,9.98
2023-05-21T08:36:31.588Z,9.80
2023-05-21T08:41:40.828Z,10.20
2023-05-21T08:46:51.164Z,10.50
2023-05-21T08:51:55.144Z,10.90
2023-05-21T08:57:00.548Z,11.35
2023-05-21T09:02:06.261Z,10.52
2023-05-21T09:07:12.544Z,12.05
2023-05-21T09:12:36.217Z,12.18
2023-05-21T09:17:40.998Z,12.40
2023-05-21T09:23:12.516Z,12.38
2023-05-21T09:28:17.338Z,11.73
2023-05-21T09:33:30.730Z,12.30
2023-05-21T09:38:38.175Z,11.85
2023-05-21T09:43:43.587Z,12.00
2023-05-21T09:48:48.131Z,12.07
2023-05-21T09:53:55.902Z,12.70
2023-05-21T09:59:01.438Z,11.52
2023-05-21T10:04:08.424Z,12.10
2023-05-21T10:09:12.115Z,14.60
2023-05-21T10:14:17.448Z,12.45
2023-05-21T10:19:23.644Z,11.35
2023-05-21T10:24:28.230Z,12.10
2023-05-21T10:29:33.159Z,12.27
2023-05-21T10:34:39.484Z,12.32
2023-05-21T10:39:45.896Z,13.25
2023-05-21T10:45:07.132Z,12.30
2023-05-21T10:50:28.009Z,12.68
2023-05-21T10:55:43.882Z,12.98
2023-05-21T11:00:46.989Z,11.50
2023-05-21T11:05:56.338Z,12.88
2023-05-21T11:10:59.786Z,12.15
2023-05-21T11:16:07.962Z,11.63
2023-05-21T11:21:13.565Z,10.80
2023-05-21T11:26:16.958Z,11.23
2023-05-21T11:31:24.692Z,10.55
2023-05-21T11:36:29.068Z,10.77
2023-05-21T11:41:32.017Z,10.95
2023-05-21T11:46:36.118Z,10.95
2023-05-21T11:51:41.527Z,10.27
2023-05-21T11:56:44.720Z,9.63
2023-05-21T12:01:47.697Z,10.05
2023-05-21T12:06:51.941Z,9.30
2023-05-21T12:11:54.886Z,10.38
2023-05-21T12:16:58.758Z,9.40
2023-05-21T12:22:04.406Z,9.85
2023-05-21T12:27:13.127Z,9.35
2023-05-21T12:32:17.297Z,9.77
2023-05-21T12:37:24.313Z,10.27
2023-05-21T12:42:28.212Z,10.05
2023-05-21T12:47:32.873Z,10.05
2023-05-21T12:52:37.152Z,9.43
2023-05-21T12:57:40.040Z,9.60
2023-05-21T13:02:45.841Z,9.93
2023-05-21T13:07:51.630Z,10.60
2023-05-21T13:12:54.498Z,11.43
2023-05-21T13:18:02.021Z,11.25
2023-05-21T13:28:15.079Z,9.60
2023-05-21T13:33:18.128Z,9.75
2023-05-21T13:38:22.406Z,10.02
2023-05-21T13:43:25.391Z,10.02
2023-05-21T13:48:28.223Z,10.75
2023-05-21T13:53:32.425Z,10.88
2023-05-21T13:58:35.671Z,9.80
2023-05-21T14:03:38.529Z,9.00
2023-05-21T14:08:44.761Z,9.65
2023-05-21T14:13:48.210Z,9.60
2023-05-21T14:18:51.041Z,8.88
2023-05-21T14:23:55.155Z,9.13
2023-05-21T14:28:57.993Z,9.10
2023-05-21T14:34:03.712Z,8.57
2023-05-21T14:39:07.879Z,8.88
2023-05-21T14:44:16.679Z,8.45
2023-05-21T14:49:19.608Z,7.57
2023-05-21T14:54:23.791Z,8.27
2023-05-21T14:59:29.821Z,8.63
2023-05-21T15:04:32.732Z,7.65
2023-05-21T15:09:39.939Z,7.97
2023-05-21T15:14:42.724Z,7.47
2023-05-21T15:19:45.522Z,7.38
2023-05-21T15:24:49.760Z,7.72
2023-05-21T15:29:53.040Z,7.45
2023-05-21T15:34:56.004Z,7.68
2023-05-21T15:40:00.405Z,8.43
2023-05-21T15:45:03.490Z,7.22
2023-05-21T15:50:07.518Z,7.68
2023-05-21T15:55:13.806Z,7.88
2023-05-21T16:00:17.268Z,7.53
2023-05-21T16:05:21.211Z,8.02
2023-05-21T16:10:25.706Z,7.25
2023-05-21T16:15:32.282Z,7.60
2023-05-21T16:20:35.414Z,7.53
2023-05-21T16:25:39.907Z,8.18
2023-05-21T16:30:42.923Z,7.80
2023-05-21T16:35:46.407Z,7.90
2023-05-21T16:40:50.774Z,7.85
2023-05-21T16:45:53.701Z,8.02
2023-05-21T16:50:56.755Z,8.57
2023-05-21T16:56:00.932Z,8.27
2023-05-21T17:01:04.006Z,7.47
2023-05-21T17:06:07.516Z,7.40
2023-05-21T17:11:11.904Z,7.60
2023-05-21T17:16:14.900Z,7.10
2023-05-21T17:21:19.428Z,7.38
2023-05-21T17:26:23.589Z,7.40
2023-05-21T17:31:26.519Z,7.75
2023-05-21T17:36:29.365Z,7.30
2023-05-21T17:41:33.740Z,8.10
2023-05-21T17:46:36.603Z,7.95
2023-05-21T17:51:39.872Z,8.07
2023-05-21T17:56:46.233Z,7.30
2023-05-21T18:01:49.954Z,7.70
2023-05-21T18:06:52.825Z,7.90
2023-05-21T18:11:58.370Z,7.60
2023-05-21T18:17:02.403Z,7.85
2023-05-21T18:22:05.992Z,8.00
2023-05-21T18:27:10.434Z,7.72
2023-05-21T18:32:15.331Z,7.90
2023-05-21T18:37:18.722Z,8.05
2023-05-21T18:42:23.309Z,7.75
2023-05-21T18:47:26.414Z,8.48
2023-05-21T19:05:48.256Z,9.40
2023-05-21T19:10:52.875Z,9.63
2023-05-21T19:15:57.609Z,10.23
2023-05-21T19:21:04.533Z,9.23
2023-05-21T19:26:07.729Z,10.45
2023-05-21T19:31:10.963Z,10.02
2023-05-21T19:36:15.459Z,10.27
2023-05-21T19:41:19.085Z,10.23
2023-05-21T19:46:22.044Z,10.07
2023-05-21T19:51:26.349Z,9.63
2023-05-21T19:56:29.147Z,9.95
2023-05-21T20:01:35.381Z,11.32
2023-05-21T20:06:40.304Z,11.50
2023-05-21T20:11:43.514Z,11.05
2023-05-21T20:16:47.023Z,10.68
2023-05-21T20:21:51.331Z,10.85
2023-05-21T20:26:54.840Z,10.68
2023-05-21T20:31:57.642Z,10.20
2023-05-21T20:37:02.389Z,9.77
2023-05-21T20:42:08.591Z,10.20
2023-05-21T20:47:11.714Z,10.50
2023-05-21T20:52:16.015Z,10.48
2023-05-21T20:57:18.807Z,11.57
2023-05-21T21:02:22.890Z,11.00
2023-05-21T21:07:30.491Z,10.68
2023-05-21T21:12:33.256Z,11.18
2023-05-21T21:17:36.095Z,10.75
2023-05-21T21:22:40.427Z,10.48
2023-05-21T21:27:43.757Z,10.00
2023-05-21T21:32:47.462Z,10.85
2023-05-21T21:37:51.706Z,10.55
2023-05-21T21:42:54.475Z,10.98
2023-05-21T21:47:57.429Z,11.23
2023-05-21T21:53:03.635Z,9.93
2023-05-21T21:58:06.720Z,9.93
2023-05-21T22:03:10.697Z,9.45
2023-05-21T22:08:16.764Z,9.75
2023-05-21T22:13:19.572Z,9.10
2023-05-21T22:18:38.679Z,8.50
2023-05-21T22:23:45.112Z,8.82
2023-05-21T22:28:47.890Z,9.40
2023-05-21T22:33:50.750Z,9.18
2023-05-21T22:38:54.971Z,8.63
2023-05-21T22:43:57.893Z,8.95
2023-05-21T22:49:00.646Z,9.63
2023-05-21T22:54:05.068Z,8.82
2023-05-21T22:59:07.896Z,8.82
2023-05-21T23:04:10.634Z,8.52
2023-05-21T23:09:15.010Z,8.48
2023-05-21T23:14:17.801Z,8.85
2023-05-21T23:19:21.115Z,7.85
2023-05-21T23:24:25.342Z,7.55
2023-05-21T23:29:28.294Z,8.30
2023-05-21T23:34:31.047Z,8.10
2023-05-21T23:39:35.250Z,8.18
2023-05-21T23:44:38.003Z,8.13
2023-05-21T23:49:40.827Z,8.57
2023-05-21T23:54:45.249Z,7.95
2023-05-21T23:59:48.128Z,8.30
